sensor_id;sensor_type;location;lat;lon;timestamp;P1;durP1;ratioP1;P2;durP2;ratioP2
78612;SDS011;67933;51.060;3.638;2023-05-07T00:00:16;10.13;;;3.78;;
78612;SDS011;67933;51.060;3.638;2023-05-07T00:02:43;8.20;;;4.00;;
78612;SDS011;67933;51.060;3.638;2023-05-07T00:05:09;11.15;;;4.78;;
78612;SDS011;67933;51.060;3.638;2023-05-07T00:07:35;9.60;;;4.40;;
78612;SDS011;67933;51.060;3.638;2023-05-07T00:10:01;7.97;;;4.25;;
78612;SDS011;67933;51.060;3.638;2023-05-07T00:12:26;9.38;;;4.13;;
78612;SDS011;67933;51.060;3.638;2023-05-07T00:14:52;6.75;;;3.80;;
78612;SDS011;67933;51.060;3.638;2023-05-07T00:17:17;8.60;;;4.18;;
78612;SDS011;67933;51.060;3.638;2023-05-07T00:19:43;8.20;;;4.03;;
78612;SDS011;67933;51.060;3.638;2023-05-07T00:22:08;6.03;;;3.70;;
78612;SDS011;67933;51.060;3.638;2023-05-07T00:24:33;7.32;;;3.90;;
78612;SDS011;67933;51.060;3.638;2023-05-07T00:26:59;8.73;;;4.22;;
78612;SDS011;67933;51.060;3.638;2023-05-07T00:29:25;6.20;;;3.88;;
78612;SDS011;67933;51.060;3.638;2023-05-07T00:31:50;9.48;;;4.97;;
78612;SDS011;67933;51.060;3.638;2023-05-07T00:34:16;10.75;;;4.28;;
78612;SDS011;67933;51.060;3.638;2023-05-07T00:36:41;7.38;;;4.47;;
78612;SDS011;67933;51.060;3.638;2023-05-07T00:39:07;10.75;;;3.88;;
78612;SDS011;67933;51.060;3.638;2023-05-07T00:41:32;6.35;;;4.18;;
78612;SDS011;67933;51.060;3.638;2023-05-07T00:43:58;8.80;;;4.38;;
78612;SDS011;67933;51.060;3.638;2023-05-07T00:46:23;10.77;;;4.60;;
78612;SDS011;67933;51.060;3.638;2023-05-07T00:48:52;9.45;;;4.30;;
78612;SDS011;67933;51.060;3.638;2023-05-07T00:51:18;8.55;;;4.80;;
78612;SDS011;67933;51.060;3.638;2023-05-07T00:53:45;6.88;;;4.47;;
78612;SDS011;67933;51.060;3.638;2023-05-07T00:56:11;6.97;;;4.03;;
78612;SDS011;67933;51.060;3.638;2023-05-07T00:58:37;5.15;;;4.03;;
78612;SDS011;67933;51.060;3.638;2023-05-07T01:01:03;8.77;;;4.72;;
78612;SDS011;67933;51.060;3.638;2023-05-07T01:03:28;10.32;;;4.75;;
78612;SDS011;67933;51.060;3.638;2023-05-07T01:05:54;6.28;;;4.60;;
78612;SDS011;67933;51.060;3.638;2023-05-07T01:08:23;11.52;;;4.35;;
78612;SDS011;67933;51.060;3.638;2023-05-07T01:10:51;12.38;;;4.95;;
78612;SDS011;67933;51.060;3.638;2023-05-07T01:13:18;11.18;;;4.45;;
78612;SDS011;67933;51.060;3.638;2023-05-07T01:15:45;8.38;;;4.75;;
78612;SDS011;67933;51.060;3.638;2023-05-07T01:18:10;8.38;;;4.47;;
78612;SDS011;67933;51.060;3.638;2023-05-07T01:20:36;9.20;;;5.03;;
78612;SDS011;67933;51.060;3.638;2023-05-07T01:23:01;9.45;;;4.85;;
78612;SDS011;67933;51.060;3.638;2023-05-07T01:25:28;14.93;;;5.78;;
78612;SDS011;67933;51.060;3.638;2023-05-07T01:27:54;9.00;;;4.82;;
78612;SDS011;67933;51.060;3.638;2023-05-07T01:30:20;7.43;;;4.95;;
78612;SDS011;67933;51.060;3.638;2023-05-07T01:35:13;10.45;;;4.90;;
78612;SDS011;67933;51.060;3.638;2023-05-07T01:37:43;6.65;;;4.28;;
78612;SDS011;67933;51.060;3.638;2023-05-07T01:40:10;9.07;;;5.15;;
78612;SDS011;67933;51.060;3.638;2023-05-07T01:42:36;8.02;;;5.15;;
78612;SDS011;67933;51.060;3.638;2023-05-07T01:45:01;6.32;;;4.32;;
78612;SDS011;67933;51.060;3.638;2023-05-07T01:47:27;8.07;;;4.78;;
78612;SDS011;67933;51.060;3.638;2023-05-07T01:52:20;9.02;;;4.10;;
78612;SDS011;67933;51.060;3.638;2023-05-07T01:54:45;6.72;;;4.25;;
78612;SDS011;67933;51.060;3.638;2023-05-07T01:57:11;9.15;;;4.93;;
78612;SDS011;67933;51.060;3.638;2023-05-07T01:59:36;8.52;;;4.57;;
78612;SDS011;67933;51.060;3.638;2023-05-07T02:02:02;10.50;;;5.50;;
78612;SDS011;67933;51.060;3.638;2023-05-07T02:04:27;9.05;;;4.90;;
78612;SDS011;67933;51.060;3.638;2023-05-07T02:06:52;12.88;;;4.93;;
78612;SDS011;67933;51.060;3.638;2023-05-07T02:09:18;10.27;;;5.47;;
78612;SDS011;67933;51.060;3.638;2023-05-07T02:11:44;11.70;;;5.25;;
78612;SDS011;67933;51.060;3.638;2023-05-07T02:14:09;8.23;;;5.13;;
78612;SDS011;67933;51.060;3.638;2023-05-07T02:16:35;7.45;;;4.70;;
78612;SDS011;67933;51.060;3.638;2023-05-07T02:19:00;9.70;;;4.70;;
78612;SDS011;67933;51.060;3.638;2023-05-07T02:21:26;8.70;;;5.10;;
78612;SDS011;67933;51.060;3.638;2023-05-07T02:23:51;10.02;;;5.80;;
78612;SDS011;67933;51.060;3.638;2023-05-07T02:26:18;8.73;;;4.88;;
78612;SDS011;67933;51.060;3.638;2023-05-07T02:28:43;9.38;;;5.85;;
78612;SDS011;67933;51.060;3.638;2023-05-07T02:31:09;10.38;;;5.30;;
78612;SDS011;67933;51.060;3.638;2023-05-07T02:33:34;9.10;;;5.00;;
78612;SDS011;67933;51.060;3.638;2023-05-07T02:36:09;11.85;;;4.97;;
78612;SDS011;67933;51.060;3.638;2023-05-07T02:38:35;5.63;;;4.43;;
78612;SDS011;67933;51.060;3.638;2023-05-07T02:41:01;6.78;;;4.68;;
78612;SDS011;67933;51.060;3.638;2023-05-07T02:43:27;8.77;;;4.88;;
78612;SDS011;67933;51.060;3.638;2023-05-07T02:48:27;7.70;;;4.93;;
78612;SDS011;67933;51.060;3.638;2023-05-07T02:50:53;5.75;;;4.53;;
78612;SDS011;67933;51.060;3.638;2023-05-07T02:53:18;6.85;;;4.65;;
78612;SDS011;67933;51.060;3.638;2023-05-07T02:55:43;8.13;;;4.32;;
78612;SDS011;67933;51.060;3.638;2023-05-07T02:58:09;6.93;;;4.97;;
78612;SDS011;67933;51.060;3.638;2023-05-07T03:00:34;11.05;;;5.22;;
78612;SDS011;67933;51.060;3.638;2023-05-07T03:03:00;10.75;;;5.75;;
78612;SDS011;67933;51.060;3.638;2023-05-07T03:05:25;9.02;;;5.82;;
78612;SDS011;67933;51.060;3.638;2023-05-07T03:07:51;9.18;;;5.50;;
78612;SDS011;67933;51.060;3.638;2023-05-07T03:10:16;10.68;;;6.00;;
78612;SDS011;67933;51.060;3.638;2023-05-07T03:12:41;8.73;;;5.32;;
78612;SDS011;67933;51.060;3.638;2023-05-07T03:15:07;9.88;;;5.65;;
78612;SDS011;67933;51.060;3.638;2023-05-07T03:17:33;9.38;;;5.88;;
78612;SDS011;67933;51.060;3.638;2023-05-07T03:19:58;10.15;;;5.80;;
78612;SDS011;67933;51.060;3.638;2023-05-07T03:22:24;6.55;;;5.10;;
78612;SDS011;67933;51.060;3.638;2023-05-07T03:24:49;5.88;;;4.95;;
78612;SDS011;67933;51.060;3.638;2023-05-07T03:27:15;7.45;;;5.22;;
78612;SDS011;67933;51.060;3.638;2023-05-07T03:29:40;6.88;;;5.38;;
78612;SDS011;67933;51.060;3.638;2023-05-07T03:32:06;9.63;;;5.28;;
78612;SDS011;67933;51.060;3.638;2023-05-07T03:34:31;7.78;;;5.38;;
78612;SDS011;67933;51.060;3.638;2023-05-07T03:36:56;10.30;;;5.30;;
78612;SDS011;67933;51.060;3.638;2023-05-07T03:39:22;9.07;;;5.40;;
78612;SDS011;67933;51.060;3.638;2023-05-07T03:41:47;9.18;;;5.07;;
78612;SDS011;67933;51.060;3.638;2023-05-07T03:44:13;9.95;;;5.60;;
78612;SDS011;67933;51.060;3.638;2023-05-07T03:46:38;9.18;;;5.43;;
78612;SDS011;67933;51.060;3.638;2023-05-07T03:49:04;7.50;;;4.90;;
78612;SDS011;67933;51.060;3.638;2023-05-07T03:51:29;7.85;;;5.07;;
78612;SDS011;67933;51.060;3.638;2023-05-07T03:53:55;8.07;;;5.30;;
78612;SDS011;67933;51.060;3.638;2023-05-07T03:56:22;10.07;;;5.82;;
78612;SDS011;67933;51.060;3.638;2023-05-07T03:58:48;7.70;;;5.15;;
78612;SDS011;67933;51.060;3.638;2023-05-07T04:01:13;11.48;;;5.28;;
78612;SDS011;67933;51.060;3.638;2023-05-07T04:03:38;8.65;;;5.50;;
78612;SDS011;67933;51.060;3.638;2023-05-07T04:06:04;8.30;;;5.20;;
78612;SDS011;67933;51.060;3.638;2023-05-07T04:08:29;9.35;;;5.43;;
78612;SDS011;67933;51.060;3.638;2023-05-07T04:10:58;10.77;;;5.53;;
78612;SDS011;67933;51.060;3.638;2023-05-07T04:13:26;10.30;;;5.57;;
78612;SDS011;67933;51.060;3.638;2023-05-07T04:15:52;8.10;;;5.55;;
78612;SDS011;67933;51.060;3.638;2023-05-07T04:18:19;6.75;;;4.95;;
78612;SDS011;67933;51.060;3.638;2023-05-07T04:20:45;10.00;;;5.28;;
78612;SDS011;67933;51.060;3.638;2023-05-07T04:23:10;7.93;;;5.03;;
78612;SDS011;67933;51.060;3.638;2023-05-07T04:25:35;9.52;;;5.50;;
78612;SDS011;67933;51.060;3.638;2023-05-07T04:28:01;8.43;;;5.20;;
78612;SDS011;67933;51.060;3.638;2023-05-07T04:30:26;9.15;;;5.13;;
78612;SDS011;67933;51.060;3.638;2023-05-07T04:32:52;6.38;;;5.03;;
78612;SDS011;67933;51.060;3.638;2023-05-07T04:35:18;9.52;;;5.55;;
78612;SDS011;67933;51.060;3.638;2023-05-07T04:37:43;7.60;;;5.47;;
78612;SDS011;67933;51.060;3.638;2023-05-07T04:40:09;8.27;;;6.20;;
78612;SDS011;67933;51.060;3.638;2023-05-07T04:42:35;9.70;;;6.45;;
78612;SDS011;67933;51.060;3.638;2023-05-07T04:45:01;10.23;;;5.68;;
78612;SDS011;67933;51.060;3.638;2023-05-07T04:47:27;11.50;;;5.93;;
78612;SDS011;67933;51.060;3.638;2023-05-07T04:49:52;8.07;;;5.68;;
78612;SDS011;67933;51.060;3.638;2023-05-07T04:52:17;11.98;;;6.05;;
78612;SDS011;67933;51.060;3.638;2023-05-07T04:54:43;8.85;;;6.15;;
78612;SDS011;67933;51.060;3.638;2023-05-07T04:57:08;9.40;;;6.35;;
78612;SDS011;67933;51.060;3.638;2023-05-07T04:59:34;9.07;;;5.82;;
78612;SDS011;67933;51.060;3.638;2023-05-07T05:01:59;8.73;;;6.07;;
78612;SDS011;67933;51.060;3.638;2023-05-07T05:04:25;9.18;;;6.20;;
78612;SDS011;67933;51.060;3.638;2023-05-07T05:06:50;11.10;;;6.50;;
78612;SDS011;67933;51.060;3.638;2023-05-07T05:09:16;9.63;;;6.50;;
78612;SDS011;67933;51.060;3.638;2023-05-07T05:11:41;9.77;;;6.20;;
78612;SDS011;67933;51.060;3.638;2023-05-07T05:14:08;12.93;;;6.63;;
78612;SDS011;67933;51.060;3.638;2023-05-07T05:16:33;10.40;;;5.93;;
78612;SDS011;67933;51.060;3.638;2023-05-07T05:18:59;10.63;;;6.25;;
78612;SDS011;67933;51.060;3.638;2023-05-07T05:21:24;12.95;;;6.60;;
78612;SDS011;67933;51.060;3.638;2023-05-07T05:23:50;10.13;;;6.18;;
78612;SDS011;67933;51.060;3.638;2023-05-07T05:26:15;9.68;;;6.50;;
78612;SDS011;67933;51.060;3.638;2023-05-07T05:28:41;10.60;;;6.07;;
78612;SDS011;67933;51.060;3.638;2023-05-07T05:31:06;9.00;;;6.13;;
78612;SDS011;67933;51.060;3.638;2023-05-07T05:33:31;9.43;;;6.20;;
78612;SDS011;67933;51.060;3.638;2023-05-07T05:35:57;9.30;;;6.70;;
78612;SDS011;67933;51.060;3.638;2023-05-07T05:38:22;13.05;;;6.47;;
78612;SDS011;67933;51.060;3.638;2023-05-07T05:40:48;9.43;;;6.05;;
78612;SDS011;67933;51.060;3.638;2023-05-07T05:43:13;11.07;;;6.55;;
78612;SDS011;67933;51.060;3.638;2023-05-07T05:45:39;11.18;;;6.15;;
78612;SDS011;67933;51.060;3.638;2023-05-07T05:48:05;11.70;;;6.32;;
78612;SDS011;67933;51.060;3.638;2023-05-07T05:50:31;12.98;;;7.45;;
78612;SDS011;67933;51.060;3.638;2023-05-07T05:52:57;13.63;;;7.10;;
78612;SDS011;67933;51.060;3.638;2023-05-07T05:55:22;13.95;;;7.43;;
78612;SDS011;67933;51.060;3.638;2023-05-07T05:57:49;9.02;;;5.68;;
78612;SDS011;67933;51.060;3.638;2023-05-07T06:00:15;12.05;;;6.45;;
78612;SDS011;67933;51.060;3.638;2023-05-07T06:02:41;10.48;;;6.75;;
78612;SDS011;67933;51.060;3.638;2023-05-07T06:05:07;8.43;;;6.38;;
78612;SDS011;67933;51.060;3.638;2023-05-07T06:07:33;14.07;;;6.85;;
78612;SDS011;67933;51.060;3.638;2023-05-07T06:09:59;12.77;;;6.85;;
78612;SDS011;67933;51.060;3.638;2023-05-07T06:12:25;11.45;;;6.75;;
78612;SDS011;67933;51.060;3.638;2023-05-07T06:14:50;10.70;;;6.68;;
78612;SDS011;67933;51.060;3.638;2023-05-07T06:17:16;13.48;;;6.55;;
78612;SDS011;67933;51.060;3.638;2023-05-07T06:19:41;9.93;;;6.60;;
78612;SDS011;67933;51.060;3.638;2023-05-07T06:22:06;10.95;;;6.15;;
78612;SDS011;67933;51.060;3.638;2023-05-07T06:24:32;13.73;;;6.88;;
78612;SDS011;67933;51.060;3.638;2023-05-07T06:26:57;11.98;;;7.43;;
78612;SDS011;67933;51.060;3.638;2023-05-07T06:29:23;14.52;;;7.85;;
78612;SDS011;67933;51.060;3.638;2023-05-07T06:31:51;12.07;;;7.28;;
78612;SDS011;67933;51.060;3.638;2023-05-07T06:34:20;14.82;;;8.73;;
78612;SDS011;67933;51.060;3.638;2023-05-07T06:36:45;14.57;;;7.60;;
78612;SDS011;67933;51.060;3.638;2023-05-07T06:39:10;11.98;;;7.57;;
78612;SDS011;67933;51.060;3.638;2023-05-07T06:41:36;15.07;;;7.85;;
78612;SDS011;67933;51.060;3.638;2023-05-07T06:44:02;16.63;;;6.70;;
78612;SDS011;67933;51.060;3.638;2023-05-07T06:46:28;13.27;;;7.28;;
78612;SDS011;67933;51.060;3.638;2023-05-07T06:48:53;11.65;;;6.38;;
78612;SDS011;67933;51.060;3.638;2023-05-07T06:51:19;11.75;;;6.18;;
78612;SDS011;67933;51.060;3.638;2023-05-07T06:53:44;9.90;;;6.53;;
78612;SDS011;67933;51.060;3.638;2023-05-07T06:56:10;9.07;;;6.20;;
78612;SDS011;67933;51.060;3.638;2023-05-07T06:58:35;14.55;;;6.53;;
78612;SDS011;67933;51.060;3.638;2023-05-07T07:01:02;9.73;;;5.68;;
78612;SDS011;67933;51.060;3.638;2023-05-07T07:03:27;8.90;;;5.72;;
78612;SDS011;67933;51.060;3.638;2023-05-07T07:05:53;11.32;;;5.80;;
78612;SDS011;67933;51.060;3.638;2023-05-07T07:08:19;12.00;;;6.05;;
78612;SDS011;67933;51.060;3.638;2023-05-07T07:10:46;9.43;;;5.70;;
78612;SDS011;67933;51.060;3.638;2023-05-07T07:13:12;10.55;;;6.00;;
78612;SDS011;67933;51.060;3.638;2023-05-07T07:15:37;7.55;;;5.43;;
78612;SDS011;67933;51.060;3.638;2023-05-07T07:18:03;11.27;;;5.40;;
78612;SDS011;67933;51.060;3.638;2023-05-07T07:20:29;10.02;;;6.00;;
78612;SDS011;67933;51.060;3.638;2023-05-07T07:22:54;9.57;;;5.10;;
78612;SDS011;67933;51.060;3.638;2023-05-07T07:25:20;13.00;;;5.63;;
78612;SDS011;67933;51.060;3.638;2023-05-07T07:27:45;11.10;;;5.70;;
78612;SDS011;67933;51.060;3.638;2023-05-07T07:30:10;9.25;;;5.78;;
78612;SDS011;67933;51.060;3.638;2023-05-07T07:32:37;7.10;;;4.65;;
78612;SDS011;67933;51.060;3.638;2023-05-07T07:35:02;10.70;;;6.00;;
78612;SDS011;67933;51.060;3.638;2023-05-07T07:37:28;9.05;;;5.53;;
78612;SDS011;67933;51.060;3.638;2023-05-07T07:39:53;11.68;;;6.80;;
78612;SDS011;67933;51.060;3.638;2023-05-07T07:42:19;10.55;;;5.45;;
78612;SDS011;67933;51.060;3.638;2023-05-07T07:44:44;10.77;;;5.57;;
78612;SDS011;67933;51.060;3.638;2023-05-07T07:47:10;10.57;;;5.88;;
78612;SDS011;67933;51.060;3.638;2023-05-07T07:49:35;8.88;;;5.57;;
78612;SDS011;67933;51.060;3.638;2023-05-07T07:52:01;10.02;;;6.03;;
78612;SDS011;67933;51.060;3.638;2023-05-07T07:54:26;11.48;;;6.35;;
78612;SDS011;67933;51.060;3.638;2023-05-07T07:56:52;7.45;;;5.20;;
78612;SDS011;67933;51.060;3.638;2023-05-07T07:59:17;12.05;;;5.80;;
78612;SDS011;67933;51.060;3.638;2023-05-07T08:04:10;12.33;;;5.70;;
78612;SDS011;67933;51.060;3.638;2023-05-07T08:06:35;11.75;;;6.85;;
78612;SDS011;67933;51.060;3.638;2023-05-07T08:09:01;11.98;;;5.85;;
78612;SDS011;67933;51.060;3.638;2023-05-07T08:11:27;11.70;;;5.78;;
78612;SDS011;67933;51.060;3.638;2023-05-07T08:13:53;11.88;;;6.13;;
78612;SDS011;67933;51.060;3.638;2023-05-07T08:16:19;11.40;;;6.47;;
78612;SDS011;67933;51.060;3.638;2023-05-07T08:18:45;14.43;;;6.90;;
78612;SDS011;67933;51.060;3.638;2023-05-07T08:21:10;11.90;;;6.00;;
78612;SDS011;67933;51.060;3.638;2023-05-07T08:23:36;13.00;;;5.93;;
78612;SDS011;67933;51.060;3.638;2023-05-07T08:26:01;10.77;;;5.60;;
78612;SDS011;67933;51.060;3.638;2023-05-07T08:28:28;10.35;;;5.75;;
78612;SDS011;67933;51.060;3.638;2023-05-07T08:30:55;12.40;;;5.03;;
78612;SDS011;67933;51.060;3.638;2023-05-07T08:33:21;10.98;;;5.28;;
78612;SDS011;67933;51.060;3.638;2023-05-07T08:35:47;11.77;;;5.93;;
78612;SDS011;67933;51.060;3.638;2023-05-07T08:38:12;8.65;;;5.68;;
78612;SDS011;67933;51.060;3.638;2023-05-07T08:40:38;9.88;;;5.78;;
78612;SDS011;67933;51.060;3.638;2023-05-07T08:43:07;14.23;;;5.25;;
78612;SDS011;67933;51.060;3.638;2023-05-07T08:45:34;11.18;;;5.22;;
78612;SDS011;67933;51.060;3.638;2023-05-07T08:48:01;9.73;;;5.10;;
78612;SDS011;67933;51.060;3.638;2023-05-07T08:50:28;9.40;;;5.15;;
78612;SDS011;67933;51.060;3.638;2023-05-07T08:52:54;9.50;;;5.00;;
78612;SDS011;67933;51.060;3.638;2023-05-07T08:55:21;10.55;;;4.93;;
78612;SDS011;67933;51.060;3.638;2023-05-07T08:57:47;8.05;;;5.28;;
78612;SDS011;67933;51.060;3.638;2023-05-07T09:00:13;7.97;;;5.03;;
78612;SDS011;67933;51.060;3.638;2023-05-07T09:02:39;8.90;;;5.70;;
78612;SDS011;67933;51.060;3.638;2023-05-07T09:05:05;10.73;;;5.78;;
78612;SDS011;67933;51.060;3.638;2023-05-07T09:07:31;9.00;;;5.82;;
78612;SDS011;67933;51.060;3.638;2023-05-07T09:09:56;9.57;;;4.70;;
78612;SDS011;67933;51.060;3.638;2023-05-07T09:12:24;9.57;;;5.05;;
78612;SDS011;67933;51.060;3.638;2023-05-07T09:14:49;6.57;;;4.40;;
78612;SDS011;67933;51.060;3.638;2023-05-07T09:17:16;6.05;;;4.50;;
78612;SDS011;67933;51.060;3.638;2023-05-07T09:19:42;12.90;;;5.72;;
78612;SDS011;67933;51.060;3.638;2023-05-07T09:22:09;10.35;;;5.97;;
78612;SDS011;67933;51.060;3.638;2023-05-07T09:24:34;7.93;;;5.13;;
78612;SDS011;67933;51.060;3.638;2023-05-07T09:27:03;12.15;;;6.45;;
78612;SDS011;67933;51.060;3.638;2023-05-07T09:29:31;11.75;;;5.70;;
78612;SDS011;67933;51.060;3.638;2023-05-07T09:32:05;8.55;;;6.20;;
78612;SDS011;67933;51.060;3.638;2023-05-07T09:34:32;8.35;;;4.32;;
78612;SDS011;67933;51.060;3.638;2023-05-07T09:37:01;9.23;;;4.90;;
78612;SDS011;67933;51.060;3.638;2023-05-07T09:39:38;7.57;;;4.45;;
78612;SDS011;67933;51.060;3.638;2023-05-07T09:44:34;6.28;;;3.83;;
78612;SDS011;67933;51.060;3.638;2023-05-07T09:47:00;7.40;;;4.45;;
78612;SDS011;67933;51.060;3.638;2023-05-07T09:49:28;9.13;;;4.25;;
78612;SDS011;67933;51.060;3.638;2023-05-07T09:51:55;5.35;;;3.70;;
78612;SDS011;67933;51.060;3.638;2023-05-07T09:54:21;6.72;;;3.60;;
78612;SDS011;67933;51.060;3.638;2023-05-07T09:56:50;6.75;;;2.97;;
78612;SDS011;67933;51.060;3.638;2023-05-07T09:59:17;5.53;;;3.33;;
78612;SDS011;67933;51.060;3.638;2023-05-07T10:01:44;8.00;;;3.58;;
78612;SDS011;67933;51.060;3.638;2023-05-07T10:04:10;11.70;;;4.18;;
78612;SDS011;67933;51.060;3.638;2023-05-07T10:06:36;10.05;;;4.07;;
78612;SDS011;67933;51.060;3.638;2023-05-07T10:09:05;6.88;;;3.97;;
78612;SDS011;67933;51.060;3.638;2023-05-07T10:11:34;6.60;;;3.72;;
78612;SDS011;67933;51.060;3.638;2023-05-07T10:14:01;6.40;;;3.78;;
78612;SDS011;67933;51.060;3.638;2023-05-07T10:16:29;7.10;;;3.28;;
78612;SDS011;67933;51.060;3.638;2023-05-07T10:18:57;6.38;;;3.30;;
78612;SDS011;67933;51.060;3.638;2023-05-07T10:21:23;8.45;;;4.03;;
78612;SDS011;67933;51.060;3.638;2023-05-07T10:23:51;6.10;;;3.88;;
78612;SDS011;67933;51.060;3.638;2023-05-07T10:26:22;4.80;;;3.00;;
78612;SDS011;67933;51.060;3.638;2023-05-07T10:28:51;3.63;;;2.50;;
78612;SDS011;67933;51.060;3.638;2023-05-07T10:34:12;3.28;;;2.17;;
78612;SDS011;67933;51.060;3.638;2023-05-07T10:36:41;4.65;;;2.20;;
78612;SDS011;67933;51.060;3.638;2023-05-07T10:39:08;4.38;;;2.03;;
78612;SDS011;67933;51.060;3.638;2023-05-07T10:41:33;4.43;;;2.40;;
78612;SDS011;67933;51.060;3.638;2023-05-07T10:43:59;4.82;;;2.38;;
78612;SDS011;67933;51.060;3.638;2023-05-07T10:46:27;4.38;;;2.40;;
78612;SDS011;67933;51.060;3.638;2023-05-07T10:51:33;5.05;;;2.47;;
78612;SDS011;67933;51.060;3.638;2023-05-07T10:56:35;2.58;;;2.20;;
78612;SDS011;67933;51.060;3.638;2023-05-07T11:01:58;5.25;;;2.38;;
78612;SDS011;67933;51.060;3.638;2023-05-07T11:04:28;5.85;;;2.58;;
78612;SDS011;67933;51.060;3.638;2023-05-07T11:15:08;5.00;;;2.58;;
78612;SDS011;67933;51.060;3.638;2023-05-07T11:17:51;5.55;;;2.83;;
78612;SDS011;67933;51.060;3.638;2023-05-07T11:20:17;7.28;;;2.60;;
78612;SDS011;67933;51.060;3.638;2023-05-07T11:22:43;4.68;;;2.90;;
78612;SDS011;67933;51.060;3.638;2023-05-07T11:25:09;6.47;;;2.70;;
78612;SDS011;67933;51.060;3.638;2023-05-07T11:27:35;3.72;;;2.60;;
78612;SDS011;67933;51.060;3.638;2023-05-07T11:30:00;5.35;;;2.83;;
78612;SDS011;67933;51.060;3.638;2023-05-07T11:32:27;3.80;;;2.65;;
78612;SDS011;67933;51.060;3.638;2023-05-07T11:34:54;4.50;;;2.60;;
78612;SDS011;67933;51.060;3.638;2023-05-07T11:37:21;5.03;;;2.78;;
78612;SDS011;67933;51.060;3.638;2023-05-07T11:39:47;4.05;;;3.05;;
78612;SDS011;67933;51.060;3.638;2023-05-07T11:42:29;7.20;;;2.88;;
78612;SDS011;67933;51.060;3.638;2023-05-07T11:44:54;4.32;;;2.35;;
78612;SDS011;67933;51.060;3.638;2023-05-07T11:47:20;3.78;;;2.17;;
78612;SDS011;67933;51.060;3.638;2023-05-07T11:49:50;5.28;;;2.90;;
78612;SDS011;67933;51.060;3.638;2023-05-07T11:52:17;3.75;;;2.60;;
78612;SDS011;67933;51.060;3.638;2023-05-07T11:54:56;4.50;;;2.30;;
78612;SDS011;67933;51.060;3.638;2023-05-07T11:57:24;3.92;;;2.60;;
78612;SDS011;67933;51.060;3.638;2023-05-07T11:59:59;2.67;;;2.08;;
78612;SDS011;67933;51.060;3.638;2023-05-07T12:02:27;5.63;;;2.65;;
78612;SDS011;67933;51.060;3.638;2023-05-07T12:04:53;4.90;;;2.80;;
78612;SDS011;67933;51.060;3.638;2023-05-07T12:07:19;5.10;;;3.10;;
78612;SDS011;67933;51.060;3.638;2023-05-07T12:09:45;4.13;;;2.97;;
78612;SDS011;67933;51.060;3.638;2023-05-07T12:12:12;6.32;;;2.92;;
78612;SDS011;67933;51.060;3.638;2023-05-07T12:14:40;4.88;;;3.17;;
78612;SDS011;67933;51.060;3.638;2023-05-07T12:17:07;3.70;;;2.65;;
78612;SDS011;67933;51.060;3.638;2023-05-07T12:19:37;5.55;;;2.85;;
78612;SDS011;67933;51.060;3.638;2023-05-07T12:22:03;4.68;;;3.00;;
78612;SDS011;67933;51.060;3.638;2023-05-07T12:24:41;4.13;;;2.40;;
78612;SDS011;67933;51.060;3.638;2023-05-07T12:27:08;4.53;;;3.03;;
78612;SDS011;67933;51.060;3.638;2023-05-07T12:29:34;3.75;;;2.53;;
78612;SDS011;67933;51.060;3.638;2023-05-07T12:31:59;4.82;;;2.55;;
78612;SDS011;67933;51.060;3.638;2023-05-07T12:34:25;3.88;;;2.78;;
78612;SDS011;67933;51.060;3.638;2023-05-07T12:36:50;5.07;;;2.50;;
78612;SDS011;67933;51.060;3.638;2023-05-07T12:39:16;4.43;;;2.30;;
78612;SDS011;67933;51.060;3.638;2023-05-07T12:41:53;2.78;;;2.30;;
78612;SDS011;67933;51.060;3.638;2023-05-07T12:44:23;4.57;;;2.67;;
78612;SDS011;67933;51.060;3.638;2023-05-07T12:46:50;3.03;;;2.33;;
78612;SDS011;67933;51.060;3.638;2023-05-07T12:49:16;4.18;;;2.25;;
78612;SDS011;67933;51.060;3.638;2023-05-07T12:51:43;4.07;;;2.63;;
78612;SDS011;67933;51.060;3.638;2023-05-07T12:54:09;3.53;;;2.75;;
78612;SDS011;67933;51.060;3.638;2023-05-07T12:56:37;4.35;;;2.95;;
78612;SDS011;67933;51.060;3.638;2023-05-07T12:59:03;5.20;;;2.85;;
78612;SDS011;67933;51.060;3.638;2023-05-07T13:01:29;5.28;;;2.40;;
78612;SDS011;67933;51.060;3.638;2023-05-07T13:04:01;3.17;;;2.35;;
78612;SDS011;67933;51.060;3.638;2023-05-07T13:06:29;3.92;;;2.58;;
78612;SDS011;67933;51.060;3.638;2023-05-07T13:08:55;3.75;;;2.40;;
78612;SDS011;67933;51.060;3.638;2023-05-07T13:11:20;4.63;;;2.45;;
78612;SDS011;67933;51.060;3.638;2023-05-07T13:13:46;4.35;;;2.38;;
78612;SDS011;67933;51.060;3.638;2023-05-07T13:16:11;3.65;;;2.35;;
78612;SDS011;67933;51.060;3.638;2023-05-07T13:18:38;4.13;;;2.70;;
78612;SDS011;67933;51.060;3.638;2023-05-07T13:21:04;5.30;;;2.80;;
78612;SDS011;67933;51.060;3.638;2023-05-07T13:23:29;4.25;;;2.70;;
78612;SDS011;67933;51.060;3.638;2023-05-07T13:25:55;4.72;;;2.80;;
78612;SDS011;67933;51.060;3.638;2023-05-07T13:28:21;4.13;;;2.80;;
78612;SDS011;67933;51.060;3.638;2023-05-07T13:30:48;4.22;;;2.90;;
78612;SDS011;67933;51.060;3.638;2023-05-07T13:33:16;4.35;;;2.83;;
78612;SDS011;67933;51.060;3.638;2023-05-07T13:35:42;4.90;;;3.33;;
78612;SDS011;67933;51.060;3.638;2023-05-07T13:38:07;3.28;;;2.92;;
78612;SDS011;67933;51.060;3.638;2023-05-07T13:40:33;4.68;;;2.72;;
78612;SDS011;67933;51.060;3.638;2023-05-07T13:42:58;4.63;;;2.75;;
78612;SDS011;67933;51.060;3.638;2023-05-07T13:45:25;4.60;;;3.30;;
78612;SDS011;67933;51.060;3.638;2023-05-07T13:47:51;5.35;;;2.75;;
78612;SDS011;67933;51.060;3.638;2023-05-07T13:50:17;6.10;;;3.67;;
78612;SDS011;67933;51.060;3.638;2023-05-07T13:52:43;9.75;;;7.25;;
78612;SDS011;67933;51.060;3.638;2023-05-07T13:55:15;9.82;;;7.60;;
78612;SDS011;67933;51.060;3.638;2023-05-07T13:57:45;9.63;;;7.40;;
78612;SDS011;67933;51.060;3.638;2023-05-07T14:00:11;9.10;;;7.75;;
78612;SDS011;67933;51.060;3.638;2023-05-07T14:02:38;11.00;;;8.57;;
78612;SDS011;67933;51.060;3.638;2023-05-07T14:05:03;13.20;;;9.02;;
78612;SDS011;67933;51.060;3.638;2023-05-07T14:07:29;10.98;;;9.20;;
78612;SDS011;67933;51.060;3.638;2023-05-07T14:09:56;9.73;;;8.65;;
78612;SDS011;67933;51.060;3.638;2023-05-07T14:12:22;13.95;;;9.63;;
78612;SDS011;67933;51.060;3.638;2023-05-07T14:14:47;11.82;;;9.18;;
78612;SDS011;67933;51.060;3.638;2023-05-07T14:22:07;11.95;;;9.77;;
78612;SDS011;67933;51.060;3.638;2023-05-07T14:24:32;13.65;;;10.25;;
78612;SDS011;67933;51.060;3.638;2023-05-07T14:26:58;13.10;;;10.48;;
78612;SDS011;67933;51.060;3.638;2023-05-07T14:29:23;11.95;;;10.02;;
78612;SDS011;67933;51.060;3.638;2023-05-07T14:31:49;12.30;;;10.43;;
78612;SDS011;67933;51.060;3.638;2023-05-07T14:34:14;16.80;;;12.18;;
78612;SDS011;67933;51.060;3.638;2023-05-07T14:36:39;15.52;;;9.50;;
78612;SDS011;67933;51.060;3.638;2023-05-07T14:39:05;7.88;;;6.82;;
78612;SDS011;67933;51.060;3.638;2023-05-07T14:41:31;7.32;;;6.60;;
78612;SDS011;67933;51.060;3.638;2023-05-07T14:43:58;9.32;;;7.75;;
78612;SDS011;67933;51.060;3.638;2023-05-07T14:46:24;9.60;;;7.05;;
78612;SDS011;67933;51.060;3.638;2023-05-07T14:48:49;12.15;;;8.77;;
78612;SDS011;67933;51.060;3.638;2023-05-07T14:51:15;9.25;;;7.82;;
78612;SDS011;67933;51.060;3.638;2023-05-07T14:53:40;10.77;;;8.52;;
78612;SDS011;67933;51.060;3.638;2023-05-07T14:56:06;8.73;;;7.18;;
78612;SDS011;67933;51.060;3.638;2023-05-07T14:58:32;11.02;;;8.20;;
78612;SDS011;67933;51.060;3.638;2023-05-07T15:00:59;9.07;;;7.85;;
78612;SDS011;67933;51.060;3.638;2023-05-07T15:03:25;12.23;;;8.45;;
78612;SDS011;67933;51.060;3.638;2023-05-07T15:05:50;9.90;;;8.82;;
78612;SDS011;67933;51.060;3.638;2023-05-07T15:08:16;10.48;;;8.88;;
78612;SDS011;67933;51.060;3.638;2023-05-07T15:10:42;14.30;;;10.07;;
78612;SDS011;67933;51.060;3.638;2023-05-07T15:13:08;9.73;;;8.73;;